Caribe Alliance — WDC9383 — position and weather

sailwx.info

Track history (hours):
 
Tides and Currents Weather Stations Pressure Air Temp Water Temp Dewpoint Dewpoint Depression Visibility Wind Speed Wind Dir Waves Ship Positions

Caribe Alliance

Owner: Gulf Caribe Maritime, Redondo Beach, CA. More information available from US FCC via Universal Licensing System and Coast Guard Vessel Documentation Center.

Last reported at 2014-Oct-23 02:33 UTC. Time now 2014-Oct-23 03:08 UTC.
Position N 33°55' W 118°27'.

Length 19 m; draft 3.3 m.

Type: Port tender. MMSI: 367101530.

Date/timePositionNaut miles runAvg speedWind from/ knotsBaromVisibWave heightAir tempDewpointWater temp
2014-Oct-23 02:33N 33°55' W 118°27'0 0.0
2014-Oct-23 01:32N 33°55' W 118°27'0 0.0
2014-Oct-23 00:33N 33°55' W 118°27'0 0.0
2014-Oct-22 23:33N 33°55' W 118°27'0 0.0
2014-Oct-22 22:32N 33°55' W 118°27'0 0.0
2014-Oct-22 21:32N 33°55' W 118°27'0 0.0
2014-Oct-22 20:32N 33°55' W 118°27'0 0.0
2014-Oct-22 19:31N 33°55' W 118°27'0 0.0
2014-Oct-22 18:33N 33°55' W 118°27'0 0.0
2014-Oct-22 17:33N 33°55' W 118°27'0 0.0
2014-Oct-22 16:33N 33°55' W 118°27'0 0.0
2014-Oct-22 15:33N 33°55' W 118°27'0 0.0
2014-Oct-22 14:33N 33°55' W 118°27'0 0.1
2014-Oct-22 13:33N 33°55' W 118°27'0 0.1
2014-Oct-22 12:33N 33°55' W 118°27'0 0.0
2014-Oct-22 11:33N 33°55' W 118°27'0 0.0
2014-Oct-22 10:33N 33°55' W 118°27'0 0.0
2014-Oct-22 09:33N 33°55' W 118°27'0 0.1
2014-Oct-22 08:33N 33°55' W 118°27'0 0.0
2014-Oct-22 07:33N 33°55' W 118°27'0 0.0
2014-Oct-22 06:33N 33°55' W 118°27'0 0.0
2014-Oct-22 05:33N 33°55' W 118°27'0 0.0
2014-Oct-22 04:33N 33°55' W 118°27'0 0.0
2014-Oct-22 03:33N 33°55' W 118°27'0 0.0
2014-Oct-22 02:34N 33°55' W 118°27'0 0.0
2014-Oct-22 01:33N 33°55' W 118°27'0 0.4
2014-Oct-22 00:33N 33°55' W 118°27'0 0.2
2014-Oct-21 23:33N 33°55' W 118°27'0 0.0
2014-Oct-21 22:33N 33°55' W 118°27'3 3.4
2014-Oct-21 21:33N 33°52' W 118°25'1 1.0
2014-Oct-21 20:33N 33°51' W 118°24'4 4.0
2014-Oct-21 19:33N 33°54' W 118°27'0 0.2
2014-Oct-21 18:33N 33°54' W 118°27'0 0.2
2014-Oct-21 17:33N 33°54' W 118°27'0 0.2
2014-Oct-21 16:34N 33°54' W 118°27'0 0.0
2014-Oct-21 15:33N 33°54' W 118°27'0 0.0
2014-Oct-21 14:33N 33°54' W 118°27'0 0.0
2014-Oct-21 13:33N 33°54' W 118°27'0 0.0
2014-Oct-21 12:33N 33°54' W 118°27'0 0.0
2014-Oct-21 11:33N 33°54' W 118°27'0 0.0
2014-Oct-21 10:33N 33°54' W 118°27'0 0.0
2014-Oct-21 09:33N 33°54' W 118°27'0 0.0
2014-Oct-21 08:33N 33°54' W 118°27'0 0.0
2014-Oct-21 07:33N 33°54' W 118°27'0 0.0
2014-Oct-21 06:34N 33°54' W 118°27'0 0.0
2014-Oct-21 05:33N 33°54' W 118°27'0 0.0
2014-Oct-21 04:33N 33°54' W 118°27'0 0.0
2014-Oct-21 03:33N 33°54' W 118°27'0 0.0
2014-Oct-21 02:33N 33°54' W 118°27'0 0.0
2014-Oct-21 01:33N 33°54' W 118°27'0 0.0
2014-Oct-21 00:33N 33°54' W 118°27'0 0.0
2014-Oct-20 23:33N 33°54' W 118°27'0 0.0
2014-Oct-20 22:32N 33°54' W 118°27'0 0.0
2014-Oct-20 21:32N 33°54' W 118°27'0 0.0
2014-Oct-20 20:33N 33°54' W 118°27'0 0.0
2014-Oct-20 19:33N 33°54' W 118°27'0 0.0
2014-Oct-20 18:33N 33°54' W 118°27'0 0.0
2014-Oct-20 17:33N 33°54' W 118°27'0 0.2
2014-Oct-20 16:34N 33°54' W 118°27'0 0.1
2014-Oct-20 15:30N 33°54' W 118°27'0 0.2
2014-Oct-20 14:34N 33°54' W 118°27'2 2.3
2014-Oct-20 13:31N 33°52' W 118°28'4 0.4
2014-Oct-20 02:32N 33°51' W 118°24'0 0.0
2014-Oct-20 01:33N 33°51' W 118°24'0 0.0
2014-Oct-20 00:31N 33°51' W 118°24'0 0.0
2014-Oct-19 23:33N 33°51' W 118°24'0 0.0
2014-Oct-19 22:33N 33°51' W 118°24'0 0.0
2014-Oct-19 20:15N 33°51' W 118°24'0 0.0
2014-Oct-19 19:19N 33°51' W 118°24'0 0.0
2014-Oct-19 18:31N 33°51' W 118°24'0 0.0
2014-Oct-19 17:30N 33°51' W 118°24'1 1.4
2014-Oct-19 16:33N 33°51' W 118°25'4 3.9
2014-Oct-19 15:33N 33°55' W 118°27'0 0.3
2014-Oct-19 14:33N 33°55' W 118°27'0 0.0
2014-Oct-19 13:33N 33°55' W 118°27'0 0.1
2014-Oct-19 12:33N 33°55' W 118°27'0 0.0
2014-Oct-19 11:34N 33°55' W 118°27'0 0.0
2014-Oct-19 10:34N 33°55' W 118°27'0 0.0
2014-Oct-19 09:33N 33°55' W 118°27'0 0.0
2014-Oct-19 08:33N 33°55' W 118°27'0 0.0
2014-Oct-19 07:27N 33°55' W 118°27'0 0.0
2014-Oct-19 06:33N 33°55' W 118°27'0 0.0
2014-Oct-19 05:33N 33°55' W 118°27'0 0.0
2014-Oct-19 04:33N 33°55' W 118°27'0 0.0
2014-Oct-19 03:33N 33°55' W 118°27'0 0.0
2014-Oct-19 02:34N 33°55' W 118°27'0 0.3
2014-Oct-19 01:34N 33°55' W 118°27'0 0.0
2014-Oct-19 00:33N 33°55' W 118°27'0 0.0
2014-Oct-18 23:23N 33°55' W 118°27'0 0.1
2014-Oct-18 22:30N 33°55' W 118°27'0 0.1
2014-Oct-18 21:33N 33°55' W 118°27'0 0.1
2014-Oct-18 20:33N 33°55' W 118°27'0 0.0
2014-Oct-18 19:33N 33°55' W 118°27'4 3.8
2014-Oct-18 18:33N 33°51' W 118°25'1 1.4
2014-Oct-18 17:33N 33°51' W 118°24'0 0.0
2014-Oct-17 23:25N 33°51' W 118°24'0 0.0
2014-Oct-16 21:25N 33°51' W 118°24'0 0.0
2014-Oct-16 02:13N 33°51' W 118°24'0 0.0
2014-Oct-16 01:30N 33°51' W 118°24'0 0.0
2014-Oct-16 00:33N 33°51' W 118°24'0 0.0
2014-Oct-15 23:29N 33°51' W 118°24'0 0.0
2014-Oct-15 22:32N 33°51' W 118°24'0 0.0
2014-Oct-15 01:29N 33°51' W 118°24'0 0.0
2014-Oct-14 23:28N 33°51' W 118°24'2 1.8
2014-Oct-14 22:33N 33°52' W 118°25'3 3.2
2014-Oct-14 21:33N 33°54' W 118°27'0 0.1
2014-Oct-14 20:33N 33°54' W 118°27'0 0.3
2014-Oct-14 19:33N 33°54' W 118°27'0 0.0
2014-Oct-14 18:32N 33°54' W 118°27'0 0.0
2014-Oct-14 17:33N 33°54' W 118°27'0 0.0
2014-Oct-14 16:33N 33°54' W 118°27'0 0.0
2014-Oct-14 15:33N 33°54' W 118°27'0 0.0
2014-Oct-14 14:33N 33°54' W 118°27'0 0.0
2014-Oct-14 13:33N 33°54' W 118°27'0 0.0
2014-Oct-14 12:33N 33°54' W 118°27'0 0.0
2014-Oct-14 11:33N 33°54' W 118°27'0 0.0
2014-Oct-14 10:33N 33°54' W 118°27'0 0.0
2014-Oct-14 09:33N 33°54' W 118°27'0 0.0
2014-Oct-14 08:33N 33°54' W 118°27'0 0.0
2014-Oct-14 07:33N 33°54' W 118°27'0 0.0
2014-Oct-14 06:33N 33°54' W 118°27'0 0.0
2014-Oct-14 05:33N 33°54' W 118°27'0 0.0
2014-Oct-14 04:33N 33°54' W 118°27'0 0.0
2014-Oct-14 03:32N 33°54' W 118°27'0 0.0
2014-Oct-14 02:33N 33°54' W 118°27'0 0.0
2014-Oct-14 01:33N 33°54' W 118°27'0 0.0
2014-Oct-14 00:33N 33°54' W 118°27'0 0.0
2014-Oct-13 23:33N 33°54' W 118°27'0 0.2
2014-Oct-13 22:33N 33°54' W 118°27'1 1.1
2014-Oct-13 21:33N 33°54' W 118°26'4 3.4
2014-Oct-13 20:26N 33°51' W 118°24'0 0.0
2014-Oct-13 14:23N 33°51' W 118°24'0 0.0
2014-Oct-13 13:17N 33°51' W 118°24'0 0.0
2014-Oct-13 12:29N 33°51' W 118°24'0 0.0
2014-Oct-13 11:26N 33°51' W 118°24'0 0.0
2014-Oct-13 09:17N 33°51' W 118°24'  
Track history (hours):
 
Tides and Currents Weather Stations Pressure Air Temp Water Temp Dewpoint Dewpoint Depression Visibility Wind Speed Wind Dir Waves Ship Positions

Caribe Alliance

Owner: Gulf Caribe Maritime, Redondo Beach, CA. More information available from US FCC via Universal Licensing System and Coast Guard Vessel Documentation Center.

Last reported at 2014-Oct-23 02:33 UTC. Time now 2014-Oct-23 03:08 UTC.
Position N 33°55' W 118°27'.

Length 19 m; draft 3.3 m.

Type: Port tender. MMSI: 367101530.

Date/timePositionNaut miles runAvg speedWind from/ knotsBaromVisibWave heightAir tempDewpointWater temp
2014-Oct-23 02:33N 33°55' W 118°27'0 0.0
2014-Oct-23 01:32N 33°55' W 118°27'0 0.0
2014-Oct-23 00:33N 33°55' W 118°27'0 0.0
2014-Oct-22 23:33N 33°55' W 118°27'0 0.0
2014-Oct-22 22:32N 33°55' W 118°27'0 0.0
2014-Oct-22 21:32N 33°55' W 118°27'0 0.0
2014-Oct-22 20:32N 33°55' W 118°27'0 0.0
2014-Oct-22 19:31N 33°55' W 118°27'0 0.0
2014-Oct-22 18:33N 33°55' W 118°27'0 0.0
2014-Oct-22 17:33N 33°55' W 118°27'0 0.0
2014-Oct-22 16:33N 33°55' W 118°27'0 0.0
2014-Oct-22 15:33N 33°55' W 118°27'0 0.0
2014-Oct-22 14:33N 33°55' W 118°27'0 0.1
2014-Oct-22 13:33N 33°55' W 118°27'0 0.1
2014-Oct-22 12:33N 33°55' W 118°27'0 0.0
2014-Oct-22 11:33N 33°55' W 118°27'0 0.0
2014-Oct-22 10:33N 33°55' W 118°27'0 0.0
2014-Oct-22 09:33N 33°55' W 118°27'0 0.1
2014-Oct-22 08:33N 33°55' W 118°27'0 0.0
2014-Oct-22 07:33N 33°55' W 118°27'0 0.0
2014-Oct-22 06:33N 33°55' W 118°27'0 0.0
2014-Oct-22 05:33N 33°55' W 118°27'0 0.0
2014-Oct-22 04:33N 33°55' W 118°27'0 0.0
2014-Oct-22 03:33N 33°55' W 118°27'0 0.0
2014-Oct-22 02:34N 33°55' W 118°27'0 0.0
2014-Oct-22 01:33N 33°55' W 118°27'0 0.4
2014-Oct-22 00:33N 33°55' W 118°27'0 0.2
2014-Oct-21 23:33N 33°55' W 118°27'0 0.0
2014-Oct-21 22:33N 33°55' W 118°27'3 3.4
2014-Oct-21 21:33N 33°52' W 118°25'1 1.0
2014-Oct-21 20:33N 33°51' W 118°24'4 4.0
2014-Oct-21 19:33N 33°54' W 118°27'0 0.2
2014-Oct-21 18:33N 33°54' W 118°27'0 0.2
2014-Oct-21 17:33N 33°54' W 118°27'0 0.2
2014-Oct-21 16:34N 33°54' W 118°27'0 0.0
2014-Oct-21 15:33N 33°54' W 118°27'0 0.0
2014-Oct-21 14:33N 33°54' W 118°27'0 0.0
2014-Oct-21 13:33N 33°54' W 118°27'0 0.0
2014-Oct-21 12:33N 33°54' W 118°27'0 0.0
2014-Oct-21 11:33N 33°54' W 118°27'0 0.0
2014-Oct-21 10:33N 33°54' W 118°27'0 0.0
2014-Oct-21 09:33N 33°54' W 118°27'0 0.0
2014-Oct-21 08:33N 33°54' W 118°27'0 0.0
2014-Oct-21 07:33N 33°54' W 118°27'0 0.0
2014-Oct-21 06:34N 33°54' W 118°27'0 0.0
2014-Oct-21 05:33N 33°54' W 118°27'0 0.0
2014-Oct-21 04:33N 33°54' W 118°27'0 0.0
2014-Oct-21 03:33N 33°54' W 118°27'0 0.0
2014-Oct-21 02:33N 33°54' W 118°27'0 0.0
2014-Oct-21 01:33N 33°54' W 118°27'0 0.0
2014-Oct-21 00:33N 33°54' W 118°27'0 0.0
2014-Oct-20 23:33N 33°54' W 118°27'0 0.0
2014-Oct-20 22:32N 33°54' W 118°27'0 0.0
2014-Oct-20 21:32N 33°54' W 118°27'0 0.0
2014-Oct-20 20:33N 33°54' W 118°27'0 0.0
2014-Oct-20 19:33N 33°54' W 118°27'0 0.0
2014-Oct-20 18:33N 33°54' W 118°27'0 0.0
2014-Oct-20 17:33N 33°54' W 118°27'0 0.2
2014-Oct-20 16:34N 33°54' W 118°27'0 0.1
2014-Oct-20 15:30N 33°54' W 118°27'0 0.2
2014-Oct-20 14:34N 33°54' W 118°27'2 2.3
2014-Oct-20 13:31N 33°52' W 118°28'4 0.4
2014-Oct-20 02:32N 33°51' W 118°24'0 0.0
2014-Oct-20 01:33N 33°51' W 118°24'0 0.0
2014-Oct-20 00:31N 33°51' W 118°24'0 0.0
2014-Oct-19 23:33N 33°51' W 118°24'0 0.0
2014-Oct-19 22:33N 33°51' W 118°24'0 0.0
2014-Oct-19 20:15N 33°51' W 118°24'0 0.0
2014-Oct-19 19:19N 33°51' W 118°24'0 0.0
2014-Oct-19 18:31N 33°51' W 118°24'0 0.0
2014-Oct-19 17:30N 33°51' W 118°24'1 1.4
2014-Oct-19 16:33N 33°51' W 118°25'4 3.9
2014-Oct-19 15:33N 33°55' W 118°27'0 0.3
2014-Oct-19 14:33N 33°55' W 118°27'0 0.0
2014-Oct-19 13:33N 33°55' W 118°27'0 0.1
2014-Oct-19 12:33N 33°55' W 118°27'0 0.0
2014-Oct-19 11:34N 33°55' W 118°27'0 0.0
2014-Oct-19 10:34N 33°55' W 118°27'0 0.0
2014-Oct-19 09:33N 33°55' W 118°27'0 0.0
2014-Oct-19 08:33N 33°55' W 118°27'0 0.0
2014-Oct-19 07:27N 33°55' W 118°27'0 0.0
2014-Oct-19 06:33N 33°55' W 118°27'0 0.0
2014-Oct-19 05:33N 33°55' W 118°27'0 0.0
2014-Oct-19 04:33N 33°55' W 118°27'0 0.0
2014-Oct-19 03:33N 33°55' W 118°27'0 0.0
2014-Oct-19 02:34N 33°55' W 118°27'0 0.3
2014-Oct-19 01:34N 33°55' W 118°27'0 0.0
2014-Oct-19 00:33N 33°55' W 118°27'0 0.0
2014-Oct-18 23:23N 33°55' W 118°27'0 0.1
2014-Oct-18 22:30N 33°55' W 118°27'0 0.1
2014-Oct-18 21:33N 33°55' W 118°27'0 0.1
2014-Oct-18 20:33N 33°55' W 118°27'0 0.0
2014-Oct-18 19:33N 33°55' W 118°27'4 3.8
2014-Oct-18 18:33N 33°51' W 118°25'1 1.4
2014-Oct-18 17:33N 33°51' W 118°24'0 0.0
2014-Oct-17 23:25N 33°51' W 118°24'0 0.0
2014-Oct-16 21:25N 33°51' W 118°24'0 0.0
2014-Oct-16 02:13N 33°51' W 118°24'0 0.0
2014-Oct-16 01:30N 33°51' W 118°24'0 0.0
2014-Oct-16 00:33N 33°51' W 118°24'0 0.0
2014-Oct-15 23:29N 33°51' W 118°24'0 0.0
2014-Oct-15 22:32N 33°51' W 118°24'0 0.0
2014-Oct-15 01:29N 33°51' W 118°24'0 0.0
2014-Oct-14 23:28N 33°51' W 118°24'2 1.8
2014-Oct-14 22:33N 33°52' W 118°25'3 3.2
2014-Oct-14 21:33N 33°54' W 118°27'0 0.1
2014-Oct-14 20:33N 33°54' W 118°27'0 0.3
2014-Oct-14 19:33N 33°54' W 118°27'0 0.0
2014-Oct-14 18:32N 33°54' W 118°27'0 0.0
2014-Oct-14 17:33N 33°54' W 118°27'0 0.0
2014-Oct-14 16:33N 33°54' W 118°27'0 0.0
2014-Oct-14 15:33N 33°54' W 118°27'0 0.0
2014-Oct-14 14:33N 33°54' W 118°27'0 0.0
2014-Oct-14 13:33N 33°54' W 118°27'0 0.0
2014-Oct-14 12:33N 33°54' W 118°27'0 0.0
2014-Oct-14 11:33N 33°54' W 118°27'0 0.0
2014-Oct-14 10:33N 33°54' W 118°27'0 0.0
2014-Oct-14 09:33N 33°54' W 118°27'0 0.0
2014-Oct-14 08:33N 33°54' W 118°27'0 0.0
2014-Oct-14 07:33N 33°54' W 118°27'0 0.0
2014-Oct-14 06:33N 33°54' W 118°27'0 0.0
2014-Oct-14 05:33N 33°54' W 118°27'0 0.0
2014-Oct-14 04:33N 33°54' W 118°27'0 0.0
2014-Oct-14 03:32N 33°54' W 118°27'0 0.0
2014-Oct-14 02:33N 33°54' W 118°27'0 0.0
2014-Oct-14 01:33N 33°54' W 118°27'0 0.0
2014-Oct-14 00:33N 33°54' W 118°27'0 0.0
2014-Oct-13 23:33N 33°54' W 118°27'0 0.2
2014-Oct-13 22:33N 33°54' W 118°27'1 1.1
2014-Oct-13 21:33N 33°54' W 118°26'4 3.4
2014-Oct-13 20:26N 33°51' W 118°24'0 0.0
2014-Oct-13 14:23N 33°51' W 118°24'0 0.0
2014-Oct-13 13:17N 33°51' W 118°24'0 0.0
2014-Oct-13 12:29N 33°51' W 118°24'0 0.0
2014-Oct-13 11:26N 33°51' W 118°24'0 0.0
2014-Oct-13 09:17N 33°51' W 118°24'  

Dump ship's entire track history